createdAt,value
2022-08-31T00:02:46.548Z,19.60
2022-08-31T00:06:53.920Z,19.59
2022-08-31T00:10:57.979Z,19.55
2022-08-31T00:15:01.780Z,19.53
2022-08-31T00:19:07.622Z,19.50
2022-08-31T00:23:14.102Z,19.45
2022-08-31T00:27:17.397Z,19.40
2022-08-31T00:31:21.213Z,19.37
2022-08-31T00:35:29.613Z,19.37
2022-08-31T00:39:32.806Z,19.34
2022-08-31T00:43:40.229Z,19.34
2022-08-31T00:47:43.459Z,19.32
2022-08-31T00:51:51.842Z,19.33
2022-08-31T00:55:55.599Z,19.33
2022-08-31T01:00:00.846Z,19.34
2022-08-31T01:04:05.237Z,19.35
2022-08-31T01:08:10.727Z,19.38
2022-08-31T01:12:14.694Z,19.41
2022-08-31T01:16:22.765Z,19.44
2022-08-31T01:20:33.121Z,19.48
2022-08-31T01:24:40.158Z,19.49
2022-08-31T01:28:43.792Z,19.47
2022-08-31T01:32:47.454Z,19.45
2022-08-31T01:36:52.957Z,19.43
2022-08-31T01:41:02.584Z,19.41
2022-08-31T01:45:07.391Z,19.37
2022-08-31T01:49:11.542Z,19.35
2022-08-31T01:53:15.360Z,19.34
2022-08-31T01:57:24.460Z,19.36
2022-08-31T02:01:40.607Z,19.39
2022-08-31T02:05:45.079Z,19.42
2022-08-31T02:09:48.683Z,19.43
2022-08-31T02:13:53.837Z,19.45
2022-08-31T02:17:57.006Z,19.46
2022-08-31T02:22:00.492Z,19.46
2022-08-31T02:26:04.408Z,19.47
2022-08-31T02:30:11.664Z,19.49
2022-08-31T02:34:17.820Z,19.49
2022-08-31T02:38:23.841Z,19.49
2022-08-31T02:42:33.061Z,19.49
2022-08-31T02:46:52.764Z,19.52
2022-08-31T02:50:56.454Z,19.52
2022-08-31T02:55:00.192Z,19.51
2022-08-31T02:59:03.340Z,19.51
2022-08-31T03:03:08.493Z,19.51
2022-08-31T03:07:12.087Z,19.50
2022-08-31T03:11:16.100Z,19.48
2022-08-31T03:15:21.905Z,19.49
2022-08-31T03:19:26.403Z,19.48
2022-08-31T03:23:30.062Z,19.48
2022-08-31T03:27:33.816Z,19.47
2022-08-31T03:31:37.088Z,19.46
2022-08-31T03:35:44.414Z,19.46
2022-08-31T03:39:48.244Z,19.45
2022-08-31T03:43:52.446Z,19.46
2022-08-31T03:47:56.511Z,19.48
2022-08-31T03:52:02.731Z,19.50
2022-08-31T03:56:08.553Z,19.50
2022-08-31T04:00:13.192Z,19.54
2022-08-31T04:04:16.914Z,19.57
2022-08-31T04:08:22.313Z,19.60
2022-08-31T04:12:25.407Z,19.63
2022-08-31T04:16:29.336Z,19.64
2022-08-31T04:20:36.268Z,19.66
2022-08-31T04:24:41.120Z,19.66
2022-08-31T04:28:44.403Z,19.66
2022-08-31T04:32:47.968Z,19.67
2022-08-31T04:36:51.592Z,19.65
2022-08-31T04:40:56.919Z,19.65
2022-08-31T04:45:00.510Z,19.67
2022-08-31T04:49:03.636Z,19.67
2022-08-31T04:53:07.599Z,19.66
2022-08-31T04:57:12.708Z,19.68
2022-08-31T05:01:18.233Z,19.70
2022-08-31T05:05:21.410Z,19.74
2022-08-31T05:09:25.550Z,19.80
2022-08-31T05:13:30.581Z,19.86
2022-08-31T05:17:33.912Z,19.93
2022-08-31T05:21:39.125Z,20.02
2022-08-31T05:25:45.478Z,20.09
2022-08-31T05:29:50.449Z,20.19
2022-08-31T05:33:54.041Z,20.26
2022-08-31T05:37:57.717Z,20.34
2022-08-31T05:42:00.853Z,20.41
2022-08-31T05:46:10.419Z,20.50
2022-08-31T05:50:14.248Z,20.59
2022-08-31T05:54:18.877Z,20.69
2022-08-31T05:58:22.590Z,20.81
2022-08-31T06:02:27.661Z,20.94
2022-08-31T06:06:33.468Z,21.02
2022-08-31T06:10:37.165Z,21.13
2022-08-31T06:14:45.620Z,21.21
2022-08-31T06:18:53.709Z,21.30
2022-08-31T06:22:57.134Z,21.36
2022-08-31T06:27:02.243Z,21.41
2022-08-31T06:31:12.827Z,21.48
2022-08-31T06:35:21.011Z,21.56
2022-08-31T06:39:24.515Z,21.64
2022-08-31T06:43:28.246Z,21.74
2022-08-31T06:47:32.907Z,21.83
2022-08-31T06:51:38.845Z,21.94
2022-08-31T06:55:42.032Z,22.05
2022-08-31T06:59:46.004Z,22.16
2022-08-31T07:03:51.045Z,22.27
2022-08-31T07:07:56.037Z,22.35
2022-08-31T07:11:59.844Z,22.37
2022-08-31T07:16:09.188Z,22.42
2022-08-31T07:20:12.801Z,22.43
2022-08-31T07:24:24.927Z,22.45
2022-08-31T07:28:30.208Z,22.45
2022-08-31T07:32:33.941Z,22.46
2022-08-31T07:36:58.390Z,22.49
2022-08-31T07:41:21.007Z,22.55
2022-08-31T07:45:30.219Z,22.65
2022-08-31T07:49:36.152Z,22.77
2022-08-31T07:53:47.695Z,22.88
2022-08-31T07:57:55.338Z,23.02
2022-08-31T08:02:01.416Z,23.12
2022-08-31T08:06:13.595Z,23.20
2022-08-31T08:10:24.386Z,22.88
2022-08-31T08:14:42.181Z,23.10
2022-08-31T08:18:46.764Z,23.19
2022-08-31T08:28:41.123Z,22.80
2022-08-31T08:32:48.384Z,22.55
2022-08-31T08:36:52.721Z,22.31
2022-08-31T08:40:55.864Z,22.20
2022-08-31T08:44:59.837Z,22.10
2022-08-31T08:49:16.786Z,22.05
2022-08-31T08:53:26.007Z,22.02
2022-08-31T08:57:32.384Z,22.00
2022-08-31T09:01:37.951Z,21.94
2022-08-31T09:06:00.471Z,21.96
2022-08-31T09:10:09.352Z,21.95
2022-08-31T09:14:31.599Z,21.85
2022-08-31T09:18:46.167Z,21.73
2022-08-31T09:22:53.008Z,21.57
2022-08-31T09:27:18.236Z,21.39
2022-08-31T09:31:36.111Z,21.27
2022-08-31T09:35:42.268Z,21.06
2022-08-31T09:39:48.976Z,20.94
2022-08-31T09:43:53.676Z,20.79
2022-08-31T09:48:01.905Z,20.73
2022-08-31T09:52:21.402Z,20.67
2022-08-31T09:56:27.230Z,20.56
2022-08-31T10:00:36.800Z,20.50
2022-08-31T10:04:51.781Z,20.42
2022-08-31T10:09:00.565Z,20.41
2022-08-31T10:13:10.205Z,20.32
2022-08-31T10:17:17.600Z,20.28
2022-08-31T10:21:28.951Z,20.23
2022-08-31T10:25:41.517Z,20.19
2022-08-31T10:29:54.287Z,20.10
2022-08-31T10:34:17.504Z,20.18
2022-08-31T10:38:27.828Z,20.17
2022-08-31T10:42:38.097Z,20.02
2022-08-31T10:46:43.901Z,20.09
2022-08-31T10:51:06.030Z,20.09
2022-08-31T10:55:16.067Z,20.12
2022-08-31T10:59:31.573Z,20.16
2022-08-31T11:04:10.783Z,20.22
2022-08-31T11:08:35.801Z,20.30
2022-08-31T11:12:44.622Z,20.38
2022-08-31T11:17:19.759Z,20.40
2022-08-31T11:22:00.863Z,20.42
2022-08-31T11:26:42.739Z,20.44
2022-08-31T11:30:51.135Z,20.46
2022-08-31T11:34:57.869Z,20.47
2022-08-31T11:39:35.786Z,20.48
2022-08-31T11:43:52.992Z,20.49
2022-08-31T11:47:56.779Z,20.47
2022-08-31T11:52:10.477Z,20.49
2022-08-31T11:56:17.663Z,20.51
2022-08-31T12:00:22.849Z,20.48
2022-08-31T12:05:03.165Z,20.55
2022-08-31T12:09:25.059Z,20.56
2022-08-31T12:13:39.216Z,20.56
2022-08-31T12:17:56.425Z,20.55
2022-08-31T12:22:25.700Z,20.50
2022-08-31T12:26:50.028Z,20.46
2022-08-31T12:31:00.211Z,20.45
2022-08-31T12:35:15.984Z,20.43
2022-08-31T12:39:23.402Z,20.39
2022-08-31T12:43:30.980Z,20.37
2022-08-31T12:47:50.157Z,20.33
2022-08-31T12:52:00.875Z,20.23
2022-08-31T12:56:12.530Z,20.14
2022-08-31T13:00:23.307Z,20.07
2022-08-31T13:04:29.732Z,19.99
2022-08-31T13:08:37.759Z,19.95
2022-08-31T13:12:42.165Z,19.86
2022-08-31T13:16:50.119Z,19.75
2022-08-31T13:21:06.093Z,19.69
2022-08-31T13:25:17.635Z,19.63
2022-08-31T13:29:25.770Z,19.57
2022-08-31T13:33:32.474Z,19.52
2022-08-31T13:37:42.830Z,19.51
2022-08-31T13:42:06.463Z,19.46
2022-08-31T13:46:09.696Z,19.49
2022-08-31T13:50:21.875Z,19.51
2022-08-31T13:54:32.850Z,19.56
2022-08-31T13:58:41.090Z,19.58
2022-08-31T14:02:45.700Z,19.58
2022-08-31T14:06:53.221Z,19.58
2022-08-31T14:15:21.310Z,19.57
2022-08-31T14:19:38.965Z,19.57
2022-08-31T14:23:43.433Z,19.55
2022-08-31T14:27:47.178Z,19.54
2022-08-31T14:31:54.200Z,19.52
2022-08-31T14:35:57.908Z,19.54
2022-08-31T14:40:07.670Z,19.56
2022-08-31T14:44:14.055Z,19.60
2022-08-31T14:48:21.029Z,19.61
2022-08-31T14:52:26.230Z,19.73
2022-08-31T14:56:33.247Z,19.83
2022-08-31T15:00:51.208Z,19.86
2022-08-31T15:05:00.375Z,19.86
2022-08-31T15:09:05.985Z,19.82
2022-08-31T15:13:09.808Z,19.82
2022-08-31T15:17:19.710Z,19.84
2022-08-31T15:21:28.849Z,19.85
2022-08-31T15:25:32.477Z,19.82
2022-08-31T15:29:44.361Z,19.76
2022-08-31T15:33:50.836Z,19.71
2022-08-31T15:38:01.304Z,19.64
2022-08-31T15:42:09.625Z,19.62
2022-08-31T15:46:14.936Z,19.59
2022-08-31T15:50:21.204Z,19.60
2022-08-31T15:54:34.868Z,19.64
2022-08-31T15:58:39.102Z,19.66
2022-08-31T16:02:43.326Z,19.66
2022-08-31T16:06:46.731Z,19.64
2022-08-31T16:10:51.867Z,19.60
2022-08-31T16:14:55.342Z,19.57
2022-08-31T16:18:59.155Z,19.52
2022-08-31T16:23:03.258Z,19.48
2022-08-31T16:27:09.882Z,19.44
2022-08-31T16:31:15.056Z,19.41
2022-08-31T16:35:20.257Z,19.40
2022-08-31T16:39:27.885Z,19.41
2022-08-31T16:43:33.969Z,19.43
2022-08-31T16:47:37.905Z,19.45
2022-08-31T16:51:44.575Z,19.47
2022-08-31T17:00:16.899Z,19.51
2022-08-31T17:04:48.089Z,19.51
2022-08-31T17:17:33.615Z,19.41
2022-08-31T17:21:36.955Z,19.39
2022-08-31T17:25:44.858Z,19.37
2022-08-31T17:29:52.660Z,19.33
2022-08-31T17:33:58.759Z,19.26
2022-08-31T17:38:03.372Z,19.22
2022-08-31T17:42:07.293Z,19.20
2022-08-31T17:46:13.953Z,19.19
2022-08-31T17:50:21.837Z,19.22
2022-08-31T17:54:30.694Z,19.21
2022-08-31T17:58:34.660Z,19.21
2022-08-31T18:02:38.506Z,19.20
2022-08-31T18:06:45.601Z,19.14
2022-08-31T18:10:53.349Z,19.14
2022-08-31T18:14:59.059Z,19.07
2022-08-31T18:19:02.224Z,19.01
2022-08-31T18:23:07.474Z,18.94
2022-08-31T18:27:15.829Z,18.86
2022-08-31T18:31:21.275Z,18.78
2022-08-31T18:35:30.348Z,18.75
2022-08-31T18:40:00.091Z,18.72
2022-08-31T18:44:22.642Z,18.69
2022-08-31T18:48:27.917Z,18.67
2022-08-31T18:52:32.930Z,18.69
2022-08-31T18:56:37.779Z,18.70
2022-08-31T19:00:42.090Z,18.71
2022-08-31T19:04:46.563Z,18.72
2022-08-31T19:08:51.167Z,18.72
2022-08-31T19:12:56.816Z,18.73
2022-08-31T19:17:03.688Z,18.73
2022-08-31T19:21:19.590Z,18.74
2022-08-31T19:25:23.717Z,18.73
2022-08-31T19:29:31.544Z,18.73
2022-08-31T19:33:35.419Z,18.72
2022-08-31T19:37:40.650Z,18.72
2022-08-31T19:41:52.217Z,18.72
2022-08-31T19:46:09.675Z,18.71
2022-08-31T19:50:14.168Z,18.70
2022-08-31T19:54:19.002Z,18.68
2022-08-31T19:58:26.547Z,18.65
2022-08-31T20:02:31.889Z,18.63
2022-08-31T20:06:35.969Z,18.58
2022-08-31T20:10:44.262Z,18.55
2022-08-31T20:14:49.189Z,18.50
2022-08-31T20:18:56.349Z,18.47
2022-08-31T20:23:01.145Z,18.44
2022-08-31T20:27:10.783Z,18.40
2022-08-31T20:31:15.350Z,18.39
2022-08-31T20:35:20.721Z,18.39
2022-08-31T20:39:28.003Z,18.39
2022-08-31T20:48:17.501Z,18.36
2022-08-31T21:46:22.521Z,18.26
2022-08-31T21:50:29.161Z,18.27
2022-08-31T21:54:32.833Z,18.25
2022-08-31T21:58:36.749Z,18.26
2022-08-31T22:02:47.036Z,18.27
2022-08-31T22:06:50.998Z,18.28
2022-08-31T22:10:55.509Z,18.24
2022-08-31T22:15:00.302Z,18.29
2022-08-31T22:19:12.360Z,18.31
2022-08-31T22:23:15.832Z,18.32
2022-08-31T22:27:19.726Z,18.02
2022-08-31T22:31:25.489Z,18.32
2022-08-31T22:35:30.799Z,18.03
2022-08-31T22:39:36.904Z,18.33
2022-08-31T22:43:41.761Z,18.39
2022-08-31T22:47:49.851Z,17.98
2022-08-31T22:51:59.549Z,18.39
2022-08-31T22:56:14.692Z,18.08
2022-08-31T23:00:20.854Z,18.50
2022-08-31T23:04:35.232Z,18.04
2022-08-31T23:08:41.851Z,18.26
2022-08-31T23:12:52.672Z,18.52
2022-08-31T23:17:04.473Z,18.05
2022-08-31T23:21:11.467Z,18.56
2022-08-31T23:25:18.568Z,18.17
2022-08-31T23:29:27.335Z,18.43
2022-08-31T23:33:31.470Z,18.11
2022-08-31T23:37:35.482Z,18.58
2022-08-31T23:41:41.405Z,18.50
2022-08-31T23:45:45.776Z,18.55
2022-08-31T23:49:51.895Z,18.44
2022-08-31T23:53:57.682Z,18.60
2022-08-31T23:58:14.451Z,18.40
